sensor_id;sensor_type;location;lat;lon;timestamp;P1;durP1;ratioP1;P2;durP2;ratioP2
64932;SDS011;51446;53.850;10.662;2023-07-13T00:02:14;3.50;;;1.50;;
64932;SDS011;51446;53.850;10.662;2023-07-13T00:04:40;7.07;;;1.63;;
64932;SDS011;51446;53.850;10.662;2023-07-13T00:07:05;4.50;;;1.50;;
64932;SDS011;51446;53.850;10.662;2023-07-13T00:09:30;7.80;;;1.93;;
64932;SDS011;51446;53.850;10.662;2023-07-13T00:11:56;5.30;;;1.70;;
64932;SDS011;51446;53.850;10.662;2023-07-13T00:14:23;4.18;;;1.80;;
64932;SDS011;51446;53.850;10.662;2023-07-13T00:16:49;3.75;;;1.58;;
64932;SDS011;51446;53.850;10.662;2023-07-13T00:19:14;5.47;;;2.00;;
64932;SDS011;51446;53.850;10.662;2023-07-13T00:21:40;3.97;;;1.40;;
64932;SDS011;51446;53.850;10.662;2023-07-13T00:24:07;6.88;;;1.75;;
64932;SDS011;51446;53.850;10.662;2023-07-13T00:26:37;4.80;;;1.77;;
64932;SDS011;51446;53.850;10.662;2023-07-13T00:29:03;4.17;;;1.53;;
64932;SDS011;51446;53.850;10.662;2023-07-13T00:31:28;4.20;;;1.67;;
64932;SDS011;51446;53.850;10.662;2023-07-13T00:33:53;7.10;;;1.87;;
64932;SDS011;51446;53.850;10.662;2023-07-13T00:36:19;3.93;;;1.70;;
64932;SDS011;51446;53.850;10.662;2023-07-13T00:38:45;3.53;;;1.70;;
64932;SDS011;51446;53.850;10.662;2023-07-13T00:41:10;4.53;;;1.73;;
64932;SDS011;51446;53.850;10.662;2023-07-13T00:43:36;5.90;;;1.75;;
64932;SDS011;51446;53.850;10.662;2023-07-13T00:48:32;3.23;;;1.50;;
64932;SDS011;51446;53.850;10.662;2023-07-13T00:51:00;3.50;;;1.60;;
64932;SDS011;51446;53.850;10.662;2023-07-13T00:53:27;2.80;;;1.45;;
64932;SDS011;51446;53.850;10.662;2023-07-13T00:55:55;5.20;;;1.73;;
64932;SDS011;51446;53.850;10.662;2023-07-13T00:58:22;5.10;;;1.60;;
64932;SDS011;51446;53.850;10.662;2023-07-13T01:00:49;4.47;;;1.83;;
64932;SDS011;51446;53.850;10.662;2023-07-13T01:03:15;6.10;;;2.05;;
64932;SDS011;51446;53.850;10.662;2023-07-13T01:05:41;7.10;;;2.07;;
64932;SDS011;51446;53.850;10.662;2023-07-13T01:08:06;4.83;;;1.93;;
64932;SDS011;51446;53.850;10.662;2023-07-13T01:10:33;6.07;;;2.05;;
64932;SDS011;51446;53.850;10.662;2023-07-13T01:13:03;5.95;;;2.00;;
64932;SDS011;51446;53.850;10.662;2023-07-13T01:18:05;4.70;;;2.10;;
64932;SDS011;51446;53.850;10.662;2023-07-13T01:20:33;4.57;;;2.20;;
64932;SDS011;51446;53.850;10.662;2023-07-13T01:23:11;4.07;;;1.70;;
64932;SDS011;51446;53.850;10.662;2023-07-13T01:25:38;2.35;;;1.60;;
64932;SDS011;51446;53.850;10.662;2023-07-13T01:28:04;5.40;;;1.70;;
64932;SDS011;51446;53.850;10.662;2023-07-13T01:30:31;4.47;;;1.70;;
64932;SDS011;51446;53.850;10.662;2023-07-13T01:32:57;7.97;;;2.13;;
64932;SDS011;51446;53.850;10.662;2023-07-13T01:35:23;5.90;;;2.70;;
64932;SDS011;51446;53.850;10.662;2023-07-13T01:37:50;4.35;;;2.42;;
64932;SDS011;51446;53.850;10.662;2023-07-13T01:40:15;4.27;;;2.00;;
64932;SDS011;51446;53.850;10.662;2023-07-13T01:42:40;7.23;;;1.80;;
64932;SDS011;51446;53.850;10.662;2023-07-13T01:45:06;16.37;;;3.07;;
64932;SDS011;51446;53.850;10.662;2023-07-13T01:47:31;3.37;;;1.90;;
64932;SDS011;51446;53.850;10.662;2023-07-13T01:49:57;5.17;;;1.70;;
64932;SDS011;51446;53.850;10.662;2023-07-13T01:52:22;5.60;;;1.80;;
64932;SDS011;51446;53.850;10.662;2023-07-13T01:54:48;4.53;;;1.88;;
64932;SDS011;51446;53.850;10.662;2023-07-13T01:57:13;4.20;;;1.80;;
64932;SDS011;51446;53.850;10.662;2023-07-13T01:59:39;6.03;;;1.80;;
64932;SDS011;51446;53.850;10.662;2023-07-13T02:02:04;6.47;;;1.40;;
64932;SDS011;51446;53.850;10.662;2023-07-13T02:04:29;3.90;;;1.93;;
64932;SDS011;51446;53.850;10.662;2023-07-13T02:06:55;6.07;;;1.90;;
64932;SDS011;51446;53.850;10.662;2023-07-13T02:09:20;4.87;;;1.77;;
64932;SDS011;51446;53.850;10.662;2023-07-13T02:11:45;6.90;;;2.20;;
64932;SDS011;51446;53.850;10.662;2023-07-13T02:14:11;5.87;;;2.20;;
64932;SDS011;51446;53.850;10.662;2023-07-13T02:16:36;5.00;;;1.97;;
64932;SDS011;51446;53.850;10.662;2023-07-13T02:19:01;3.67;;;2.13;;
64932;SDS011;51446;53.850;10.662;2023-07-13T02:21:27;7.13;;;2.00;;
64932;SDS011;51446;53.850;10.662;2023-07-13T02:23:52;7.13;;;2.00;;
64932;SDS011;51446;53.850;10.662;2023-07-13T02:26:17;6.00;;;1.90;;
64932;SDS011;51446;53.850;10.662;2023-07-13T02:28:43;5.57;;;1.90;;
64932;SDS011;51446;53.850;10.662;2023-07-13T02:31:09;6.97;;;2.40;;
64932;SDS011;51446;53.850;10.662;2023-07-13T02:33:37;7.70;;;2.03;;
64932;SDS011;51446;53.850;10.662;2023-07-13T02:36:03;5.20;;;2.20;;
64932;SDS011;51446;53.850;10.662;2023-07-13T02:38:30;5.00;;;2.00;;
64932;SDS011;51446;53.850;10.662;2023-07-13T02:40:58;4.10;;;2.22;;
64932;SDS011;51446;53.850;10.662;2023-07-13T02:43:24;2.88;;;2.03;;
64932;SDS011;51446;53.850;10.662;2023-07-13T02:45:49;5.87;;;2.10;;
64932;SDS011;51446;53.850;10.662;2023-07-13T02:48:14;5.40;;;2.10;;
64932;SDS011;51446;53.850;10.662;2023-07-13T02:50:40;3.93;;;2.17;;
64932;SDS011;51446;53.850;10.662;2023-07-13T02:53:05;5.60;;;2.20;;
64932;SDS011;51446;53.850;10.662;2023-07-13T02:55:31;4.70;;;2.50;;
64932;SDS011;51446;53.850;10.662;2023-07-13T02:57:56;5.57;;;1.90;;
64932;SDS011;51446;53.850;10.662;2023-07-13T03:00:22;3.78;;;2.17;;
64932;SDS011;51446;53.850;10.662;2023-07-13T03:02:47;5.17;;;2.00;;
64932;SDS011;51446;53.850;10.662;2023-07-13T03:05:12;4.70;;;2.03;;
64932;SDS011;51446;53.850;10.662;2023-07-13T03:07:38;8.47;;;2.30;;
64932;SDS011;51446;53.850;10.662;2023-07-13T03:10:04;5.13;;;2.35;;
64932;SDS011;51446;53.850;10.662;2023-07-13T03:12:31;4.85;;;1.85;;
64932;SDS011;51446;53.850;10.662;2023-07-13T03:14:57;8.10;;;1.90;;
64932;SDS011;51446;53.850;10.662;2023-07-13T03:17:22;5.03;;;1.90;;
64932;SDS011;51446;53.850;10.662;2023-07-13T03:19:47;4.67;;;1.90;;
64932;SDS011;51446;53.850;10.662;2023-07-13T03:22:17;5.93;;;1.90;;
64932;SDS011;51446;53.850;10.662;2023-07-13T03:24:43;7.13;;;2.17;;
64932;SDS011;51446;53.850;10.662;2023-07-13T03:27:08;6.35;;;2.22;;
64932;SDS011;51446;53.850;10.662;2023-07-13T03:29:34;5.27;;;1.90;;
64932;SDS011;51446;53.850;10.662;2023-07-13T03:31:59;8.50;;;2.10;;
64932;SDS011;51446;53.850;10.662;2023-07-13T03:34:24;3.70;;;1.80;;
64932;SDS011;51446;53.850;10.662;2023-07-13T03:36:50;5.38;;;2.13;;
64932;SDS011;51446;53.850;10.662;2023-07-13T03:39:15;5.57;;;1.83;;
64932;SDS011;51446;53.850;10.662;2023-07-13T03:41:40;2.80;;;1.83;;
64932;SDS011;51446;53.850;10.662;2023-07-13T03:44:06;5.37;;;2.10;;
64932;SDS011;51446;53.850;10.662;2023-07-13T03:46:31;8.80;;;2.20;;
64932;SDS011;51446;53.850;10.662;2023-07-13T03:48:58;7.32;;;2.13;;
64932;SDS011;51446;53.850;10.662;2023-07-13T03:51:24;7.80;;;2.10;;
64932;SDS011;51446;53.850;10.662;2023-07-13T03:53:49;4.90;;;1.80;;
64932;SDS011;51446;53.850;10.662;2023-07-13T03:56:14;6.17;;;1.73;;
64932;SDS011;51446;53.850;10.662;2023-07-13T03:58:41;5.72;;;2.03;;
64932;SDS011;51446;53.850;10.662;2023-07-13T04:01:08;4.27;;;2.33;;
64932;SDS011;51446;53.850;10.662;2023-07-13T04:03:35;6.32;;;2.03;;
64932;SDS011;51446;53.850;10.662;2023-07-13T04:06:01;8.40;;;2.38;;
64932;SDS011;51446;53.850;10.662;2023-07-13T04:08:34;5.60;;;2.40;;
64932;SDS011;51446;53.850;10.662;2023-07-13T04:11:01;4.63;;;2.10;;
64932;SDS011;51446;53.850;10.662;2023-07-13T04:13:27;3.78;;;1.80;;
64932;SDS011;51446;53.850;10.662;2023-07-13T04:15:52;4.65;;;1.90;;
64932;SDS011;51446;53.850;10.662;2023-07-13T04:18:18;3.03;;;1.53;;
64932;SDS011;51446;53.850;10.662;2023-07-13T04:20:48;7.13;;;2.17;;
64932;SDS011;51446;53.850;10.662;2023-07-13T04:23:14;4.33;;;1.90;;
64932;SDS011;51446;53.850;10.662;2023-07-13T04:25:43;4.63;;;1.85;;
64932;SDS011;51446;53.850;10.662;2023-07-13T04:28:08;4.35;;;1.80;;
64932;SDS011;51446;53.850;10.662;2023-07-13T04:30:34;6.27;;;1.90;;
64932;SDS011;51446;53.850;10.662;2023-07-13T04:32:59;8.17;;;1.63;;
64932;SDS011;51446;53.850;10.662;2023-07-13T04:35:24;5.93;;;2.10;;
64932;SDS011;51446;53.850;10.662;2023-07-13T04:37:50;3.37;;;1.83;;
64932;SDS011;51446;53.850;10.662;2023-07-13T04:40:16;8.97;;;1.83;;
64932;SDS011;51446;53.850;10.662;2023-07-13T04:42:42;4.88;;;1.77;;
64932;SDS011;51446;53.850;10.662;2023-07-13T04:45:07;3.93;;;2.00;;
64932;SDS011;51446;53.850;10.662;2023-07-13T04:47:35;7.37;;;2.27;;
64932;SDS011;51446;53.850;10.662;2023-07-13T04:50:00;4.32;;;1.88;;
64932;SDS011;51446;53.850;10.662;2023-07-13T04:52:25;4.83;;;1.80;;
64932;SDS011;51446;53.850;10.662;2023-07-13T04:54:51;5.17;;;2.00;;
64932;SDS011;51446;53.850;10.662;2023-07-13T04:57:16;5.10;;;2.03;;
64932;SDS011;51446;53.850;10.662;2023-07-13T04:59:41;5.20;;;2.20;;
64932;SDS011;51446;53.850;10.662;2023-07-13T05:02:07;8.80;;;2.20;;
64932;SDS011;51446;53.850;10.662;2023-07-13T05:04:32;6.20;;;2.00;;
64932;SDS011;51446;53.850;10.662;2023-07-13T05:06:58;8.43;;;1.90;;
64932;SDS011;51446;53.850;10.662;2023-07-13T05:09:24;2.92;;;1.88;;
64932;SDS011;51446;53.850;10.662;2023-07-13T05:11:49;5.07;;;1.70;;
64932;SDS011;51446;53.850;10.662;2023-07-13T05:14:15;4.63;;;1.70;;
64932;SDS011;51446;53.850;10.662;2023-07-13T05:16:41;3.63;;;1.77;;
64932;SDS011;51446;53.850;10.662;2023-07-13T05:19:07;3.87;;;1.80;;
64932;SDS011;51446;53.850;10.662;2023-07-13T05:21:32;6.78;;;1.80;;
64932;SDS011;51446;53.850;10.662;2023-07-13T05:23:58;5.93;;;1.60;;
64932;SDS011;51446;53.850;10.662;2023-07-13T05:26:23;3.73;;;1.70;;
64932;SDS011;51446;53.850;10.662;2023-07-13T05:28:48;5.10;;;1.60;;
64932;SDS011;51446;53.850;10.662;2023-07-13T05:31:14;4.70;;;1.67;;
64932;SDS011;51446;53.850;10.662;2023-07-13T05:33:39;5.73;;;1.60;;
64932;SDS011;51446;53.850;10.662;2023-07-13T05:36:05;7.73;;;1.90;;
64932;SDS011;51446;53.850;10.662;2023-07-13T05:38:30;6.35;;;1.88;;
64932;SDS011;51446;53.850;10.662;2023-07-13T05:40:56;3.40;;;1.70;;
64932;SDS011;51446;53.850;10.662;2023-07-13T05:43:22;5.77;;;1.60;;
64932;SDS011;51446;53.850;10.662;2023-07-13T05:45:47;7.10;;;1.65;;
64932;SDS011;51446;53.850;10.662;2023-07-13T05:48:14;5.93;;;2.05;;
64932;SDS011;51446;53.850;10.662;2023-07-13T05:50:40;5.87;;;1.90;;
64932;SDS011;51446;53.850;10.662;2023-07-13T05:53:05;7.70;;;1.80;;
64932;SDS011;51446;53.850;10.662;2023-07-13T05:55:31;5.43;;;2.07;;
64932;SDS011;51446;53.850;10.662;2023-07-13T05:57:56;8.35;;;1.90;;
64932;SDS011;51446;53.850;10.662;2023-07-13T06:00:23;5.97;;;1.93;;
64932;SDS011;51446;53.850;10.662;2023-07-13T06:02:49;4.53;;;1.90;;
64932;SDS011;51446;53.850;10.662;2023-07-13T06:05:14;6.27;;;1.90;;
64932;SDS011;51446;53.850;10.662;2023-07-13T06:07:40;8.70;;;2.10;;
64932;SDS011;51446;53.850;10.662;2023-07-13T06:10:06;7.97;;;1.98;;
64932;SDS011;51446;53.850;10.662;2023-07-13T06:12:31;9.40;;;1.83;;
64932;SDS011;51446;53.850;10.662;2023-07-13T06:14:56;10.07;;;2.47;;
64932;SDS011;51446;53.850;10.662;2023-07-13T06:17:22;4.87;;;1.77;;
64932;SDS011;51446;53.850;10.662;2023-07-13T06:19:48;10.18;;;2.50;;
64932;SDS011;51446;53.850;10.662;2023-07-13T06:22:13;7.03;;;2.00;;
64932;SDS011;51446;53.850;10.662;2023-07-13T06:24:39;7.80;;;2.10;;
64932;SDS011;51446;53.850;10.662;2023-07-13T06:27:04;6.83;;;1.90;;
64932;SDS011;51446;53.850;10.662;2023-07-13T06:29:29;11.80;;;2.50;;
64932;SDS011;51446;53.850;10.662;2023-07-13T06:31:56;9.23;;;2.17;;
64932;SDS011;51446;53.850;10.662;2023-07-13T06:34:21;10.70;;;2.07;;
64932;SDS011;51446;53.850;10.662;2023-07-13T06:36:46;12.20;;;2.30;;
64932;SDS011;51446;53.850;10.662;2023-07-13T06:39:12;10.87;;;2.37;;
64932;SDS011;51446;53.850;10.662;2023-07-13T06:41:37;5.23;;;2.00;;
64932;SDS011;51446;53.850;10.662;2023-07-13T06:44:03;8.17;;;2.00;;
64932;SDS011;51446;53.850;10.662;2023-07-13T06:46:29;5.80;;;1.90;;
64932;SDS011;51446;53.850;10.662;2023-07-13T06:48:55;9.97;;;2.60;;
64932;SDS011;51446;53.850;10.662;2023-07-13T06:51:21;8.55;;;2.45;;
64932;SDS011;51446;53.850;10.662;2023-07-13T06:53:46;6.97;;;2.10;;
64932;SDS011;51446;53.850;10.662;2023-07-13T06:56:11;8.87;;;2.10;;
64932;SDS011;51446;53.850;10.662;2023-07-13T06:58:37;10.27;;;2.33;;
64932;SDS011;51446;53.850;10.662;2023-07-13T07:01:02;7.78;;;1.83;;
64932;SDS011;51446;53.850;10.662;2023-07-13T07:03:28;14.87;;;2.77;;
64932;SDS011;51446;53.850;10.662;2023-07-13T07:05:54;12.23;;;2.37;;
64932;SDS011;51446;53.850;10.662;2023-07-13T07:08:19;9.63;;;2.30;;
64932;SDS011;51446;53.850;10.662;2023-07-13T07:10:45;8.30;;;2.17;;
64932;SDS011;51446;53.850;10.662;2023-07-13T07:13:10;12.20;;;2.30;;
64932;SDS011;51446;53.850;10.662;2023-07-13T07:15:35;14.93;;;2.97;;
64932;SDS011;51446;53.850;10.662;2023-07-13T07:18:01;7.73;;;1.93;;
64932;SDS011;51446;53.850;10.662;2023-07-13T07:20:26;9.73;;;2.67;;
64932;SDS011;51446;53.850;10.662;2023-07-13T07:22:52;9.67;;;2.20;;
64932;SDS011;51446;53.850;10.662;2023-07-13T07:25:17;11.23;;;2.37;;
64932;SDS011;51446;53.850;10.662;2023-07-13T07:27:43;15.63;;;2.45;;
64932;SDS011;51446;53.850;10.662;2023-07-13T07:30:09;15.00;;;2.73;;
64932;SDS011;51446;53.850;10.662;2023-07-13T07:32:34;16.52;;;2.85;;
64932;SDS011;51446;53.850;10.662;2023-07-13T07:35:00;10.13;;;2.10;;
64932;SDS011;51446;53.850;10.662;2023-07-13T07:37:25;9.17;;;2.27;;
64932;SDS011;51446;53.850;10.662;2023-07-13T07:39:50;8.93;;;2.57;;
64932;SDS011;51446;53.850;10.662;2023-07-13T07:42:16;14.07;;;2.60;;
64932;SDS011;51446;53.850;10.662;2023-07-13T07:44:41;9.60;;;2.10;;
64932;SDS011;51446;53.850;10.662;2023-07-13T07:47:07;9.05;;;2.22;;
64932;SDS011;51446;53.850;10.662;2023-07-13T07:49:33;6.40;;;1.90;;
64932;SDS011;51446;53.850;10.662;2023-07-13T07:51:58;10.80;;;2.22;;
64932;SDS011;51446;53.850;10.662;2023-07-13T07:54:24;10.17;;;1.77;;
64932;SDS011;51446;53.850;10.662;2023-07-13T07:56:49;6.30;;;1.70;;
64932;SDS011;51446;53.850;10.662;2023-07-13T07:59:14;8.37;;;1.87;;
64932;SDS011;51446;53.850;10.662;2023-07-13T08:01:39;5.60;;;1.63;;
64932;SDS011;51446;53.850;10.662;2023-07-13T08:04:05;6.73;;;1.57;;
64932;SDS011;51446;53.850;10.662;2023-07-13T08:06:33;5.20;;;1.10;;
64932;SDS011;51446;53.850;10.662;2023-07-13T08:08:59;4.20;;;1.30;;
64932;SDS011;51446;53.850;10.662;2023-07-13T08:11:25;7.05;;;1.30;;
64932;SDS011;51446;53.850;10.662;2023-07-13T08:13:50;5.40;;;1.23;;
64932;SDS011;51446;53.850;10.662;2023-07-13T08:16:16;5.13;;;1.37;;
64932;SDS011;51446;53.850;10.662;2023-07-13T08:18:41;3.95;;;1.00;;
64932;SDS011;51446;53.850;10.662;2023-07-13T08:21:07;4.23;;;1.17;;
64932;SDS011;51446;53.850;10.662;2023-07-13T08:23:33;8.10;;;1.23;;
64932;SDS011;51446;53.850;10.662;2023-07-13T08:26:00;5.15;;;1.00;;
64932;SDS011;51446;53.850;10.662;2023-07-13T08:28:29;7.00;;;1.33;;
64932;SDS011;51446;53.850;10.662;2023-07-13T08:30:54;3.58;;;1.00;;
64932;SDS011;51446;53.850;10.662;2023-07-13T08:33:20;7.33;;;0.90;;
64932;SDS011;51446;53.850;10.662;2023-07-13T08:35:49;5.97;;;1.00;;
64932;SDS011;51446;53.850;10.662;2023-07-13T08:38:15;7.05;;;1.13;;
64932;SDS011;51446;53.850;10.662;2023-07-13T08:40:41;2.85;;;1.20;;
64932;SDS011;51446;53.850;10.662;2023-07-13T08:43:13;5.03;;;1.10;;
64932;SDS011;51446;53.850;10.662;2023-07-13T08:45:52;5.95;;;1.20;;
64932;SDS011;51446;53.850;10.662;2023-07-13T08:48:48;3.37;;;1.10;;
64932;SDS011;51446;53.850;10.662;2023-07-13T08:51:26;6.50;;;1.13;;
64932;SDS011;51446;53.850;10.662;2023-07-13T08:56:49;4.10;;;0.85;;
64932;SDS011;51446;53.850;10.662;2023-07-13T08:59:18;3.53;;;0.90;;
64932;SDS011;51446;53.850;10.662;2023-07-13T09:01:53;3.10;;;1.10;;
64932;SDS011;51446;53.850;10.662;2023-07-13T09:04:35;2.85;;;0.90;;
64932;SDS011;51446;53.850;10.662;2023-07-13T09:12:14;4.05;;;0.80;;
64932;SDS011;51446;53.850;10.662;2023-07-13T09:15:01;4.50;;;1.00;;
64932;SDS011;51446;53.850;10.662;2023-07-13T09:17:32;2.70;;;0.70;;
64932;SDS011;51446;53.850;10.662;2023-07-13T09:20:23;2.45;;;0.98;;
64932;SDS011;51446;53.850;10.662;2023-07-13T09:22:55;3.90;;;0.98;;
64932;SDS011;51446;53.850;10.662;2023-07-13T09:25:31;4.72;;;0.90;;
64932;SDS011;51446;53.850;10.662;2023-07-13T09:28:15;6.60;;;1.20;;
64932;SDS011;51446;53.850;10.662;2023-07-13T09:33:09;4.63;;;1.03;;
64932;SDS011;51446;53.850;10.662;2023-07-13T09:35:35;2.80;;;1.10;;
64932;SDS011;51446;53.850;10.662;2023-07-13T09:38:11;5.28;;;1.10;;
64932;SDS011;51446;53.850;10.662;2023-07-13T09:43:25;7.00;;;1.10;;
64932;SDS011;51446;53.850;10.662;2023-07-13T09:45:51;4.40;;;0.82;;
64932;SDS011;51446;53.850;10.662;2023-07-13T09:48:17;6.17;;;1.20;;
64932;SDS011;51446;53.850;10.662;2023-07-13T09:50:43;4.23;;;1.07;;
64932;SDS011;51446;53.850;10.662;2023-07-13T09:53:13;5.82;;;0.80;;
64932;SDS011;51446;53.850;10.662;2023-07-13T09:55:44;7.18;;;1.10;;
64932;SDS011;51446;53.850;10.662;2023-07-13T10:00:39;4.13;;;0.90;;
64932;SDS011;51446;53.850;10.662;2023-07-13T10:03:09;5.07;;;1.00;;
64932;SDS011;51446;53.850;10.662;2023-07-13T10:05:45;4.28;;;1.00;;
64932;SDS011;51446;53.850;10.662;2023-07-13T10:08:17;4.22;;;0.63;;
64932;SDS011;51446;53.850;10.662;2023-07-13T10:10:59;3.03;;;1.05;;
64932;SDS011;51446;53.850;10.662;2023-07-13T10:13:32;3.65;;;0.88;;
64932;SDS011;51446;53.850;10.662;2023-07-13T10:16:02;3.67;;;1.00;;
64932;SDS011;51446;53.850;10.662;2023-07-13T10:18:30;5.18;;;1.08;;
64932;SDS011;51446;53.850;10.662;2023-07-13T10:21:15;4.05;;;1.33;;
64932;SDS011;51446;53.850;10.662;2023-07-13T10:23:43;3.72;;;1.20;;
64932;SDS011;51446;53.850;10.662;2023-07-13T10:26:14;5.97;;;1.20;;
64932;SDS011;51446;53.850;10.662;2023-07-13T10:28:45;2.10;;;1.00;;
64932;SDS011;51446;53.850;10.662;2023-07-13T10:31:15;4.97;;;1.20;;
64932;SDS011;51446;53.850;10.662;2023-07-13T10:33:41;3.60;;;1.20;;
64932;SDS011;51446;53.850;10.662;2023-07-13T10:36:52;6.75;;;1.60;;
64932;SDS011;51446;53.850;10.662;2023-07-13T10:38:59;3.63;;;1.20;;
64932;SDS011;51446;53.850;10.662;2023-07-13T10:41:27;5.57;;;1.30;;
64932;SDS011;51446;53.850;10.662;2023-07-13T10:43:57;3.10;;;1.00;;
64932;SDS011;51446;53.850;10.662;2023-07-13T10:46:24;2.15;;;0.90;;
64932;SDS011;51446;53.850;10.662;2023-07-13T10:48:57;4.30;;;1.10;;
64932;SDS011;51446;53.850;10.662;2023-07-13T10:51:25;5.00;;;1.20;;
64932;SDS011;51446;53.850;10.662;2023-07-13T10:56:40;3.30;;;1.00;;
64932;SDS011;51446;53.850;10.662;2023-07-13T11:04:42;6.30;;;1.20;;
64932;SDS011;51446;53.850;10.662;2023-07-13T11:07:21;4.18;;;1.25;;
64932;SDS011;51446;53.850;10.662;2023-07-13T11:09:49;5.57;;;1.10;;
64932;SDS011;51446;53.850;10.662;2023-07-13T11:15:06;7.53;;;1.47;;
64932;SDS011;51446;53.850;10.662;2023-07-13T11:20:10;4.47;;;0.93;;
64932;SDS011;51446;53.850;10.662;2023-07-13T11:22:51;4.57;;;1.00;;
64932;SDS011;51446;53.850;10.662;2023-07-13T11:25:25;5.78;;;1.25;;
64932;SDS011;51446;53.850;10.662;2023-07-13T11:30:41;3.95;;;1.00;;
64932;SDS011;51446;53.850;10.662;2023-07-13T11:36:04;4.67;;;1.23;;
64932;SDS011;51446;53.850;10.662;2023-07-13T11:38:41;4.00;;;0.88;;
64932;SDS011;51446;53.850;10.662;2023-07-13T11:44:12;2.88;;;1.05;;
64932;SDS011;51446;53.850;10.662;2023-07-13T11:46:43;4.28;;;1.35;;
64932;SDS011;51446;53.850;10.662;2023-07-13T11:49:13;2.03;;;1.20;;
64932;SDS011;51446;53.850;10.662;2023-07-13T11:51:41;3.65;;;1.35;;
64932;SDS011;51446;53.850;10.662;2023-07-13T11:54:14;4.15;;;1.83;;
64932;SDS011;51446;53.850;10.662;2023-07-13T11:57:03;4.28;;;1.58;;
64932;SDS011;51446;53.850;10.662;2023-07-13T11:59:51;7.32;;;1.80;;
64932;SDS011;51446;53.850;10.662;2023-07-13T12:02:53;6.67;;;1.47;;
64932;SDS011;51446;53.850;10.662;2023-07-13T12:05:14;4.38;;;1.50;;
64932;SDS011;51446;53.850;10.662;2023-07-13T12:07:42;4.25;;;1.60;;
64932;SDS011;51446;53.850;10.662;2023-07-13T12:12:50;2.33;;;1.35;;
64932;SDS011;51446;53.850;10.662;2023-07-13T12:15:16;4.63;;;1.50;;
64932;SDS011;51446;53.850;10.662;2023-07-13T12:17:41;9.37;;;2.03;;
64932;SDS011;51446;53.850;10.662;2023-07-13T12:20:20;3.17;;;1.33;;
64932;SDS011;51446;53.850;10.662;2023-07-13T12:22:49;7.57;;;1.20;;
64932;SDS011;51446;53.850;10.662;2023-07-13T12:25:16;3.45;;;1.17;;
64932;SDS011;51446;53.850;10.662;2023-07-13T12:27:42;3.90;;;0.95;;
64932;SDS011;51446;53.850;10.662;2023-07-13T12:30:21;2.47;;;1.00;;
64932;SDS011;51446;53.850;10.662;2023-07-13T12:33:00;3.42;;;1.30;;
64932;SDS011;51446;53.850;10.662;2023-07-13T12:35:38;2.88;;;1.00;;
64932;SDS011;51446;53.850;10.662;2023-07-13T12:38:09;4.20;;;1.30;;
64932;SDS011;51446;53.850;10.662;2023-07-13T12:40:36;3.40;;;1.13;;
64932;SDS011;51446;53.850;10.662;2023-07-13T12:43:02;5.67;;;1.00;;
64932;SDS011;51446;53.850;10.662;2023-07-13T12:45:29;4.85;;;1.40;;
64932;SDS011;51446;53.850;10.662;2023-07-13T12:48:02;3.25;;;1.30;;
64932;SDS011;51446;53.850;10.662;2023-07-13T12:50:38;3.95;;;1.00;;
64932;SDS011;51446;53.850;10.662;2023-07-13T12:53:12;3.63;;;1.20;;
64932;SDS011;51446;53.850;10.662;2023-07-13T12:55:43;5.00;;;1.30;;
64932;SDS011;51446;53.850;10.662;2023-07-13T12:58:36;5.13;;;1.10;;
64932;SDS011;51446;53.850;10.662;2023-07-13T13:01:01;1.60;;;1.00;;
64932;SDS011;51446;53.850;10.662;2023-07-13T13:03:31;2.63;;;1.20;;
64932;SDS011;51446;53.850;10.662;2023-07-13T13:08:27;4.27;;;1.40;;
64932;SDS011;51446;53.850;10.662;2023-07-13T13:10:53;3.95;;;1.25;;
64932;SDS011;51446;53.850;10.662;2023-07-13T13:13:18;2.93;;;1.10;;
64932;SDS011;51446;53.850;10.662;2023-07-13T13:15:43;3.80;;;1.10;;
64932;SDS011;51446;53.850;10.662;2023-07-13T13:18:14;4.87;;;1.10;;
64932;SDS011;51446;53.850;10.662;2023-07-13T13:20:41;2.92;;;1.50;;
64932;SDS011;51446;53.850;10.662;2023-07-13T13:23:10;11.60;;;1.50;;
64932;SDS011;51446;53.850;10.662;2023-07-13T13:25:38;4.90;;;1.40;;
64932;SDS011;51446;53.850;10.662;2023-07-13T13:28:03;3.00;;;1.20;;
64932;SDS011;51446;53.850;10.662;2023-07-13T13:30:29;3.43;;;1.40;;
64932;SDS011;51446;53.850;10.662;2023-07-13T13:32:54;6.60;;;1.70;;
64932;SDS011;51446;53.850;10.662;2023-07-13T13:35:20;3.97;;;1.30;;
64932;SDS011;51446;53.850;10.662;2023-07-13T13:37:45;4.68;;;1.60;;
64932;SDS011;51446;53.850;10.662;2023-07-13T13:40:20;5.47;;;1.83;;
64932;SDS011;51446;53.850;10.662;2023-07-13T13:42:48;3.35;;;1.70;;
64932;SDS011;51446;53.850;10.662;2023-07-13T13:45:13;3.53;;;1.77;;
64932;SDS011;51446;53.850;10.662;2023-07-13T13:47:41;3.55;;;1.80;;
64932;SDS011;51446;53.850;10.662;2023-07-13T13:50:13;7.87;;;2.33;;
64932;SDS011;51446;53.850;10.662;2023-07-13T13:52:44;5.10;;;2.15;;
64932;SDS011;51446;53.850;10.662;2023-07-13T13:55:17;4.60;;;2.00;;
64932;SDS011;51446;53.850;10.662;2023-07-13T13:57:44;4.22;;;1.90;;
64932;SDS011;51446;53.850;10.662;2023-07-13T14:00:10;5.03;;;2.20;;
64932;SDS011;51446;53.850;10.662;2023-07-13T14:02:39;5.50;;;2.33;;
64932;SDS011;51446;53.850;10.662;2023-07-13T14:05:09;5.28;;;1.98;;
64932;SDS011;51446;53.850;10.662;2023-07-13T14:07:37;5.28;;;2.00;;
64932;SDS011;51446;53.850;10.662;2023-07-13T14:10:05;8.23;;;2.23;;
64932;SDS011;51446;53.850;10.662;2023-07-13T14:12:37;6.93;;;1.80;;
64932;SDS011;51446;53.850;10.662;2023-07-13T14:15:02;8.40;;;2.50;;
64932;SDS011;51446;53.850;10.662;2023-07-13T14:17:28;2.80;;;1.50;;
64932;SDS011;51446;53.850;10.662;2023-07-13T14:19:53;8.98;;;2.67;;
64932;SDS011;51446;53.850;10.662;2023-07-13T14:22:23;9.93;;;3.13;;
64932;SDS011;51446;53.850;10.662;2023-07-13T14:24:49;5.07;;;2.47;;
64932;SDS011;51446;53.850;10.662;2023-07-13T14:27:14;6.30;;;2.47;;
64932;SDS011;51446;53.850;10.662;2023-07-13T14:29:40;6.33;;;2.30;;
64932;SDS011;51446;53.850;10.662;2023-07-13T14:32:09;4.90;;;1.85;;
64932;SDS011;51446;53.850;10.662;2023-07-13T14:34:35;5.53;;;1.90;;
64932;SDS011;51446;53.850;10.662;2023-07-13T14:37:01;6.23;;;1.90;;
64932;SDS011;51446;53.850;10.662;2023-07-13T14:39:26;4.57;;;1.90;;
64932;SDS011;51446;53.850;10.662;2023-07-13T14:41:54;8.20;;;2.40;;
64932;SDS011;51446;53.850;10.662;2023-07-13T14:44:22;5.47;;;2.10;;
64932;SDS011;51446;53.850;10.662;2023-07-13T14:46:50;5.05;;;1.75;;
64932;SDS011;51446;53.850;10.662;2023-07-13T14:49:21;7.28;;;2.55;;
64932;SDS011;51446;53.850;10.662;2023-07-13T14:52:18;2.67;;;1.63;;
64932;SDS011;51446;53.850;10.662;2023-07-13T14:54:45;3.10;;;1.70;;
64932;SDS011;51446;53.850;10.662;2023-07-13T14:57:15;4.78;;;1.73;;
64932;SDS011;51446;53.850;10.662;2023-07-13T14:59:41;8.50;;;1.90;;
64932;SDS011;51446;53.850;10.662;2023-07-13T15:02:13;3.58;;;1.50;;
64932;SDS011;51446;53.850;10.662;2023-07-13T15:04:39;3.30;;;1.48;;
64932;SDS011;51446;53.850;10.662;2023-07-13T15:07:04;4.97;;;1.53;;
64932;SDS011;51446;53.850;10.662;2023-07-13T15:09:30;5.50;;;1.30;;
64932;SDS011;51446;53.850;10.662;2023-07-13T15:11:55;5.10;;;1.60;;
64932;SDS011;51446;53.850;10.662;2023-07-13T15:14:21;3.15;;;1.55;;
64932;SDS011;51446;53.850;10.662;2023-07-13T15:16:49;3.78;;;1.40;;
64932;SDS011;51446;53.850;10.662;2023-07-13T15:19:16;4.90;;;1.50;;
64932;SDS011;51446;53.850;10.662;2023-07-13T15:21:43;4.63;;;1.50;;
64932;SDS011;51446;53.850;10.662;2023-07-13T15:24:09;5.63;;;2.10;;
64932;SDS011;51446;53.850;10.662;2023-07-13T15:26:35;5.32;;;1.83;;